createdAt,value
2023-05-22T00:01:20.153Z,14.90
2023-05-22T00:03:48.568Z,14.80
2023-05-22T00:06:18.377Z,14.80
2023-05-22T00:08:46.427Z,14.80
2023-05-22T00:11:15.956Z,14.80
2023-05-22T00:13:43.956Z,14.80
2023-05-22T00:16:11.969Z,14.70
2023-05-22T00:18:42.426Z,14.70
2023-05-22T00:21:10.795Z,14.70
2023-05-22T00:23:39.093Z,14.60
2023-05-22T00:26:07.128Z,14.60
2023-05-22T00:28:36.548Z,14.50
2023-05-22T00:31:04.894Z,14.50
2023-05-22T00:33:34.112Z,14.40
2023-05-22T00:36:02.411Z,14.40
2023-05-22T00:38:32.221Z,14.40
2023-05-22T00:41:00.732Z,14.30
2023-05-22T00:43:29.149Z,14.30
2023-05-22T00:45:58.988Z,14.30
2023-05-22T00:48:27.269Z,14.30
2023-05-22T00:50:56.415Z,14.20
2023-05-22T00:53:26.256Z,14.20
2023-05-22T00:55:55.592Z,14.20
2023-05-22T00:58:27.027Z,14.10
2023-05-22T01:00:55.385Z,14.10
2023-05-22T01:03:27.447Z,14.10
2023-05-22T01:05:56.102Z,14.10
2023-05-22T01:08:24.134Z,14.00
2023-05-22T01:10:55.948Z,14.00
2023-05-22T01:13:31.067Z,14.00
2023-05-22T01:16:07.239Z,13.90
2023-05-22T01:18:47.805Z,13.90
2023-05-22T01:21:23.109Z,13.90
2023-05-22T01:24:27.953Z,13.90
2023-05-22T01:27:14.964Z,13.80
2023-05-22T01:29:47.711Z,13.80
2023-05-22T01:32:21.426Z,13.80
2023-05-22T01:34:54.411Z,13.80
2023-05-22T01:37:23.412Z,13.70
2023-05-22T01:39:52.904Z,13.70
2023-05-22T01:42:21.472Z,13.70
2023-05-22T01:44:49.807Z,13.60
2023-05-22T01:47:19.469Z,13.60
2023-05-22T01:49:50.766Z,13.60
2023-05-22T01:52:26.106Z,13.60
2023-05-22T01:54:59.667Z,13.50
2023-05-22T01:57:30.161Z,13.50
2023-05-22T02:00:07.332Z,13.50
2023-05-22T02:02:38.987Z,13.50
2023-05-22T02:05:11.249Z,13.50
2023-05-22T02:07:41.637Z,13.40
2023-05-22T02:10:11.368Z,13.40
2023-05-22T02:12:39.663Z,13.30
2023-05-22T02:15:10.770Z,13.30
2023-05-22T02:17:41.894Z,13.30
2023-05-22T02:20:14.456Z,13.30
2023-05-22T02:22:43.894Z,13.30
2023-05-22T02:25:14.513Z,13.20
2023-05-22T02:27:43.723Z,13.20
2023-05-22T02:30:12.592Z,13.20
2023-05-22T02:32:43.266Z,13.10
2023-05-22T02:35:11.963Z,13.10
2023-05-22T02:37:40.150Z,13.10
2023-05-22T02:40:09.968Z,13.10
2023-05-22T02:42:38.068Z,13.00
2023-05-22T02:45:06.945Z,13.00
2023-05-22T02:47:34.950Z,13.00
2023-05-22T02:50:04.411Z,12.90
2023-05-22T02:52:32.400Z,12.90
2023-05-22T02:55:00.481Z,12.90
2023-05-22T02:57:28.504Z,12.80
2023-05-22T02:59:57.557Z,12.80
2023-05-22T03:02:28.377Z,12.80
2023-05-22T03:04:58.960Z,12.80
2023-05-22T03:07:29.546Z,12.80
2023-05-22T03:09:57.690Z,12.70
2023-05-22T03:12:25.931Z,12.70
2023-05-22T03:14:53.949Z,12.70
2023-05-22T03:17:21.935Z,12.70
2023-05-22T03:19:49.904Z,12.70
2023-05-22T03:22:18.621Z,12.70
2023-05-22T03:24:48.056Z,12.70
2023-05-22T03:27:17.640Z,12.70
2023-05-22T03:29:45.627Z,12.70
2023-05-22T03:32:13.609Z,12.70
2023-05-22T03:34:41.657Z,12.70
2023-05-22T03:37:10.867Z,12.70
2023-05-22T03:39:39.677Z,12.70
2023-05-22T03:42:09.245Z,12.70
2023-05-22T03:44:37.232Z,12.70
2023-05-22T03:47:05.835Z,12.70
2023-05-22T03:49:33.837Z,12.70
2023-05-22T03:52:01.867Z,12.80
2023-05-22T03:54:29.842Z,12.70
2023-05-22T03:56:57.822Z,12.80
2023-05-22T03:59:27.541Z,12.80
2023-05-22T04:02:00.279Z,12.80
2023-05-22T04:04:28.538Z,12.80
2023-05-22T04:06:58.205Z,12.80
2023-05-22T04:09:28.491Z,12.80
2023-05-22T04:11:56.495Z,12.80
2023-05-22T04:14:26.256Z,12.90
2023-05-22T04:16:54.372Z,12.90
2023-05-22T04:19:22.475Z,12.90
2023-05-22T04:21:50.543Z,13.00
2023-05-22T04:24:18.679Z,13.10
2023-05-22T04:26:46.697Z,13.10
2023-05-22T04:29:14.816Z,13.10
2023-05-22T04:31:44.518Z,13.20
2023-05-22T04:34:13.730Z,13.30
2023-05-22T04:36:41.741Z,13.30
2023-05-22T04:39:09.866Z,13.40
2023-05-22T04:41:39.012Z,13.50
2023-05-22T04:44:07.315Z,13.50
2023-05-22T04:46:35.919Z,13.60
2023-05-22T04:49:05.510Z,13.70
2023-05-22T04:51:35.153Z,13.70
2023-05-22T04:54:03.261Z,13.90
2023-05-22T04:56:36.680Z,13.90
2023-05-22T04:59:08.765Z,14.10
2023-05-22T05:01:37.879Z,14.20
2023-05-22T05:04:07.766Z,14.40
2023-05-22T05:06:37.197Z,14.50
2023-05-22T05:09:05.581Z,14.60
2023-05-22T05:11:33.594Z,14.70
2023-05-22T05:14:01.715Z,14.90
2023-05-22T05:16:30.175Z,15.00
2023-05-22T05:19:00.505Z,15.20
2023-05-22T05:21:29.927Z,15.40
2023-05-22T05:23:57.979Z,15.50
2023-05-22T05:26:27.354Z,15.60
2023-05-22T05:28:56.623Z,15.90
2023-05-22T05:31:25.071Z,16.10
2023-05-22T05:33:53.185Z,16.40
2023-05-22T05:36:21.190Z,16.60
2023-05-22T05:38:50.571Z,16.80
2023-05-22T05:41:19.109Z,17.10
2023-05-22T05:43:47.213Z,17.30
2023-05-22T05:46:15.299Z,17.50
2023-05-22T05:48:43.889Z,17.80
2023-05-22T05:51:12.082Z,18.00
2023-05-22T05:53:40.689Z,18.10
2023-05-22T05:56:10.594Z,18.20
2023-05-22T05:58:38.954Z,18.50
2023-05-22T06:01:07.234Z,18.80
2023-05-22T06:03:35.397Z,18.90
2023-05-22T06:06:05.143Z,19.10
2023-05-22T06:08:34.553Z,19.30
2023-05-22T06:11:03.361Z,19.50
2023-05-22T06:13:32.791Z,19.60
2023-05-22T06:16:02.826Z,19.80
2023-05-22T06:18:33.003Z,20.00
2023-05-22T06:21:03.897Z,20.20
2023-05-22T06:23:32.363Z,20.30
2023-05-22T06:26:00.469Z,20.50
2023-05-22T06:28:31.262Z,20.80
2023-05-22T06:31:01.261Z,21.10
2023-05-22T06:33:29.362Z,21.30
2023-05-22T06:35:57.618Z,21.20
2023-05-22T06:38:26.577Z,21.50
2023-05-22T06:40:54.611Z,21.80
2023-05-22T06:43:22.654Z,22.10
2023-05-22T06:45:50.733Z,22.40
2023-05-22T06:48:20.139Z,22.40
2023-05-22T06:50:48.210Z,22.20
2023-05-22T06:53:16.236Z,22.50
2023-05-22T06:55:44.414Z,22.90
2023-05-22T06:58:12.390Z,23.30
2023-05-22T07:00:42.118Z,23.40
2023-05-22T07:03:12.963Z,23.50
2023-05-22T07:05:42.487Z,23.70
2023-05-22T07:08:13.569Z,24.00
2023-05-22T07:10:44.603Z,24.00
2023-05-22T07:13:12.624Z,24.20
2023-05-22T07:15:40.631Z,24.00
2023-05-22T07:18:10.718Z,24.00
2023-05-22T07:20:39.028Z,24.10
2023-05-22T07:23:09.169Z,24.50
2023-05-22T07:25:37.191Z,24.80
2023-05-22T07:28:08.834Z,24.80
2023-05-22T07:30:38.700Z,24.80
2023-05-22T07:33:07.355Z,24.70
2023-05-22T07:35:36.825Z,24.40
2023-05-22T07:38:05.324Z,24.50
2023-05-22T07:40:34.835Z,24.90
2023-05-22T07:43:02.875Z,24.70
2023-05-22T07:45:32.519Z,24.30
2023-05-22T07:48:01.979Z,24.40
2023-05-22T07:50:30.556Z,24.40
2023-05-22T07:52:58.628Z,24.70
2023-05-22T07:55:35.288Z,24.60
2023-05-22T07:58:05.150Z,24.70
2023-05-22T08:00:33.224Z,24.90
2023-05-22T08:03:01.577Z,25.10
2023-05-22T08:05:29.940Z,25.30
2023-05-22T08:07:57.957Z,25.70
2023-05-22T08:10:28.021Z,25.70
2023-05-22T08:13:02.310Z,25.80
2023-05-22T08:15:31.845Z,26.00
2023-05-22T08:17:59.893Z,25.70
2023-05-22T08:20:28.062Z,25.40
2023-05-22T08:22:56.772Z,25.70
2023-05-22T08:25:24.761Z,25.90
2023-05-22T08:27:53.060Z,26.00
2023-05-22T08:30:22.156Z,25.70
2023-05-22T08:32:51.630Z,25.60
2023-05-22T08:35:19.670Z,25.80
2023-05-22T08:37:49.708Z,26.00
2023-05-22T08:40:21.640Z,26.10
2023-05-22T08:42:51.521Z,26.00
2023-05-22T08:45:19.989Z,26.00
2023-05-22T08:47:53.699Z,26.20
2023-05-22T08:50:23.916Z,26.00
2023-05-22T08:52:53.207Z,25.90
2023-05-22T08:55:21.235Z,26.00
2023-05-22T08:57:50.631Z,26.20
2023-05-22T09:00:23.044Z,25.80
2023-05-22T09:02:53.596Z,25.40
2023-05-22T09:05:26.472Z,25.80
2023-05-22T09:07:56.637Z,25.90
2023-05-22T09:10:26.994Z,26.00
2023-05-22T09:13:01.863Z,26.00
2023-05-22T09:15:33.463Z,26.00
2023-05-22T09:18:04.609Z,25.80
2023-05-22T09:20:36.045Z,25.80
2023-05-22T09:23:12.231Z,25.70
2023-05-22T09:25:40.266Z,25.70
2023-05-22T09:28:08.250Z,25.60
2023-05-22T09:30:36.480Z,25.30
2023-05-22T09:33:08.749Z,25.30
2023-05-22T09:35:38.963Z,25.50
2023-05-22T09:38:07.314Z,25.60
2023-05-22T09:40:38.777Z,25.60
2023-05-22T09:43:08.756Z,25.60
2023-05-22T09:45:37.762Z,25.30
2023-05-22T09:48:09.539Z,25.30
2023-05-22T09:50:38.631Z,25.10
2023-05-22T09:53:07.271Z,25.50
2023-05-22T09:55:36.046Z,25.60
2023-05-22T09:58:05.345Z,25.80
2023-05-22T10:00:36.628Z,25.80
2023-05-22T10:03:14.757Z,25.90
2023-05-22T10:05:47.147Z,26.00
2023-05-22T10:08:17.621Z,25.90
2023-05-22T10:10:51.536Z,26.00
2023-05-22T10:13:20.891Z,26.00
2023-05-22T10:15:49.815Z,26.10
2023-05-22T10:18:20.043Z,26.00
2023-05-22T10:20:48.887Z,26.00
2023-05-22T10:23:18.184Z,26.10
2023-05-22T10:25:47.597Z,26.20
2023-05-22T10:28:33.963Z,26.30
2023-05-22T10:31:07.553Z,26.40
2023-05-22T10:33:42.865Z,26.60
2023-05-22T10:36:15.157Z,26.70
2023-05-22T10:38:55.865Z,26.70
2023-05-22T10:41:24.421Z,26.50
2023-05-22T10:43:53.112Z,26.80
2023-05-22T10:46:22.048Z,26.80
2023-05-22T10:48:53.837Z,27.00
2023-05-22T10:51:23.334Z,27.20
2023-05-22T10:53:54.317Z,27.30
2023-05-22T10:56:25.114Z,27.10
2023-05-22T10:58:59.129Z,26.70
2023-05-22T11:01:27.694Z,26.60
2023-05-22T11:03:59.067Z,26.70
2023-05-22T11:06:47.164Z,26.90
2023-05-22T11:09:22.175Z,26.80
2023-05-22T11:12:21.468Z,26.60
2023-05-22T11:14:55.319Z,26.40
2023-05-22T11:17:25.910Z,26.50
2023-05-22T11:20:06.859Z,26.40
2023-05-22T11:22:36.947Z,26.40
2023-05-22T11:25:08.923Z,26.40
2023-05-22T11:27:37.542Z,26.50
2023-05-22T11:30:06.601Z,26.40
2023-05-22T11:32:37.080Z,26.60
2023-05-22T11:35:08.397Z,27.00
2023-05-22T11:37:40.504Z,27.10
2023-05-22T11:40:09.847Z,26.80
2023-05-22T11:42:40.880Z,26.80
2023-05-22T11:45:09.991Z,26.80
2023-05-22T11:47:38.273Z,26.80
2023-05-22T11:50:10.565Z,26.80
2023-05-22T11:52:40.136Z,26.70
2023-05-22T11:55:09.692Z,26.60
2023-05-22T11:57:38.234Z,26.50
2023-05-22T12:00:08.552Z,26.40
2023-05-22T12:02:37.203Z,26.40
2023-05-22T12:05:10.093Z,26.60
2023-05-22T12:07:38.159Z,26.50
2023-05-22T12:10:08.166Z,26.50
2023-05-22T12:12:36.221Z,26.40
2023-05-22T12:15:08.549Z,26.40
2023-05-22T12:17:38.355Z,26.40
2023-05-22T12:20:08.692Z,26.40
2023-05-22T12:22:42.254Z,26.40
2023-05-22T12:25:16.206Z,26.40
2023-05-22T12:27:46.631Z,26.30
2023-05-22T12:30:15.692Z,26.40
2023-05-22T12:32:48.814Z,26.30
2023-05-22T12:35:18.653Z,26.10
2023-05-22T12:37:50.591Z,26.00
2023-05-22T12:40:18.982Z,26.00
2023-05-22T12:42:47.002Z,26.10
2023-05-22T12:45:15.398Z,25.90
2023-05-22T12:47:43.498Z,25.90
2023-05-22T12:50:14.785Z,25.90
2023-05-22T12:52:44.200Z,25.90
2023-05-22T12:55:12.498Z,25.90
2023-05-22T12:57:40.746Z,25.80
2023-05-22T13:00:09.896Z,25.90
2023-05-22T13:02:38.039Z,25.80
2023-05-22T13:05:07.506Z,25.70
2023-05-22T13:07:35.592Z,25.70
2023-05-22T13:10:06.714Z,25.80
2023-05-22T13:12:34.824Z,25.80
2023-05-22T13:15:03.414Z,25.70
2023-05-22T13:17:31.456Z,25.80
2023-05-22T13:19:59.772Z,25.70
2023-05-22T13:22:28.053Z,25.70
2023-05-22T13:24:56.290Z,25.60
2023-05-22T13:27:25.700Z,25.50
2023-05-22T13:29:53.754Z,25.50
2023-05-22T13:32:21.891Z,25.50
2023-05-22T13:34:50.018Z,25.50
2023-05-22T13:37:18.754Z,25.30
2023-05-22T13:39:46.816Z,25.20
2023-05-22T13:42:14.891Z,25.00
2023-05-22T13:44:44.284Z,24.90
2023-05-22T13:47:14.253Z,24.90
2023-05-22T13:49:42.372Z,24.90
2023-05-22T13:52:10.427Z,24.90
2023-05-22T13:54:38.650Z,24.90
2023-05-22T13:57:07.381Z,24.70
2023-05-22T13:59:35.356Z,24.80
2023-05-22T14:02:05.001Z,24.70
2023-05-22T14:04:32.958Z,24.70
2023-05-22T14:07:04.231Z,24.70
2023-05-22T14:09:32.512Z,24.70
2023-05-22T14:12:00.467Z,24.70
2023-05-22T14:14:28.491Z,24.70
2023-05-22T14:16:56.504Z,24.70
2023-05-22T14:19:26.122Z,24.70
2023-05-22T14:21:54.201Z,24.50
2023-05-22T14:24:22.174Z,24.30
2023-05-22T14:26:51.147Z,24.20
2023-05-22T14:29:19.303Z,24.30
2023-05-22T14:31:51.196Z,24.40
2023-05-22T14:34:19.950Z,24.30
2023-05-22T14:36:49.404Z,24.30
2023-05-22T14:39:17.421Z,24.40
2023-05-22T14:41:45.436Z,24.30
2023-05-22T14:44:13.466Z,24.30
2023-05-22T14:46:45.201Z,24.30
2023-05-22T14:49:13.434Z,24.30
2023-05-22T14:51:47.615Z,24.30
2023-05-22T14:54:18.985Z,24.40
2023-05-22T14:56:47.531Z,24.40
2023-05-22T14:59:15.532Z,24.40
2023-05-22T15:01:43.761Z,24.40
2023-05-22T15:04:11.765Z,24.40
2023-05-22T15:06:42.364Z,24.40
2023-05-22T15:09:10.365Z,24.40
2023-05-22T15:11:41.339Z,24.40
2023-05-22T15:14:09.329Z,24.40
2023-05-22T15:16:37.436Z,24.40
2023-05-22T15:19:05.633Z,24.30
2023-05-22T15:21:33.957Z,24.20
2023-05-22T15:24:01.938Z,24.20
2023-05-22T15:26:31.181Z,24.30
2023-05-22T15:29:01.344Z,24.30
2023-05-22T15:31:30.322Z,24.30
2023-05-22T15:33:58.882Z,24.20
2023-05-22T15:36:28.511Z,24.20
2023-05-22T15:38:56.615Z,24.10
2023-05-22T15:41:24.628Z,24.10
2023-05-22T15:43:53.191Z,24.00
2023-05-22T15:46:23.975Z,23.80
2023-05-22T15:48:51.988Z,23.80
2023-05-22T15:51:19.998Z,23.70
2023-05-22T15:53:48.048Z,23.60
2023-05-22T15:56:16.107Z,23.60
2023-05-22T15:58:44.108Z,23.50
2023-05-22T16:01:13.409Z,23.40
2023-05-22T16:03:42.954Z,23.40
2023-05-22T16:06:13.789Z,23.40
2023-05-22T16:08:41.937Z,23.30
2023-05-22T16:11:09.956Z,23.30
2023-05-22T16:13:38.105Z,23.20
2023-05-22T16:16:06.562Z,23.10
2023-05-22T16:18:34.593Z,23.10
2023-05-22T16:21:04.189Z,23.00
2023-05-22T16:23:32.236Z,23.00
2023-05-22T16:26:00.229Z,22.90
2023-05-22T16:28:28.241Z,22.80
2023-05-22T16:30:56.231Z,22.70
2023-05-22T16:33:24.210Z,22.70
2023-05-22T16:35:52.512Z,22.60
2023-05-22T16:38:25.570Z,22.60
2023-05-22T16:40:54.936Z,22.50
2023-05-22T16:43:22.920Z,22.40
2023-05-22T16:45:51.839Z,22.40
2023-05-22T16:48:22.337Z,22.30
2023-05-22T16:50:50.362Z,22.20
2023-05-22T16:53:19.707Z,22.20
2023-05-22T16:55:49.139Z,22.10
2023-05-22T16:58:17.725Z,22.10
2023-05-22T17:00:45.904Z,22.00
2023-05-22T17:03:14.638Z,21.90
2023-05-22T17:05:43.160Z,21.80
2023-05-22T17:08:11.395Z,21.70
2023-05-22T17:10:39.395Z,21.70
2023-05-22T17:13:09.045Z,21.70
2023-05-22T17:15:37.035Z,21.70
2023-05-22T17:18:05.444Z,21.60
2023-05-22T17:20:34.106Z,21.60
2023-05-22T17:23:02.143Z,21.50
2023-05-22T17:25:30.442Z,21.50
2023-05-22T17:27:58.549Z,21.40
2023-05-22T17:30:27.910Z,21.40
2023-05-22T17:32:57.778Z,21.30
2023-05-22T17:35:27.444Z,21.30
2023-05-22T17:37:55.434Z,21.30
2023-05-22T17:40:32.482Z,21.20
2023-05-22T17:43:08.382Z,21.10
2023-05-22T17:45:37.886Z,21.00
2023-05-22T17:48:07.588Z,21.00
2023-05-22T17:50:35.715Z,20.90
2023-05-22T17:53:03.741Z,20.90
2023-05-22T17:55:31.765Z,20.80
2023-05-22T17:58:00.077Z,20.80
2023-05-22T18:00:28.074Z,20.70
2023-05-22T18:02:57.596Z,20.60
2023-05-22T18:05:25.726Z,20.60
2023-05-22T18:07:53.716Z,20.60
2023-05-22T18:10:25.508Z,20.40
2023-05-22T18:12:53.642Z,20.40
2023-05-22T18:15:24.506Z,20.30
2023-05-22T18:17:55.344Z,20.20
2023-05-22T18:20:24.769Z,20.20
2023-05-22T18:22:52.791Z,20.10
2023-05-22T18:25:20.958Z,20.00
2023-05-22T18:27:48.986Z,20.00
2023-05-22T18:30:17.421Z,19.90
2023-05-22T18:32:46.049Z,19.90
2023-05-22T18:35:14.069Z,19.80
2023-05-22T18:37:43.530Z,19.70
2023-05-22T18:40:16.735Z,19.70
2023-05-22T18:42:44.757Z,19.60
2023-05-22T18:45:16.055Z,19.60
2023-05-22T18:47:44.120Z,19.50
2023-05-22T18:50:13.145Z,19.40
2023-05-22T18:52:43.745Z,19.40
2023-05-22T18:55:13.273Z,19.30
2023-05-22T18:57:41.293Z,19.20
2023-05-22T19:00:10.395Z,19.10
2023-05-22T19:02:38.793Z,19.10
2023-05-22T19:05:07.807Z,19.00
2023-05-22T19:07:35.856Z,18.90
2023-05-22T19:10:06.300Z,18.80
2023-05-22T19:12:37.548Z,18.80
2023-05-22T19:15:06.861Z,18.70
2023-05-22T19:17:34.950Z,18.70
2023-05-22T19:20:06.228Z,18.60
2023-05-22T19:22:34.306Z,18.50
2023-05-22T19:25:05.695Z,18.50
2023-05-22T19:27:34.795Z,18.50
2023-05-22T19:30:07.298Z,18.40
2023-05-22T19:32:35.383Z,18.30
2023-05-22T19:35:03.402Z,18.30
2023-05-22T19:37:32.899Z,18.30
2023-05-22T19:40:01.103Z,18.20
2023-05-22T19:42:29.249Z,18.10
2023-05-22T19:44:57.282Z,18.10
2023-05-22T19:47:27.339Z,18.00
2023-05-22T19:49:55.376Z,18.00
2023-05-22T19:52:23.441Z,18.00
2023-05-22T19:54:51.425Z,18.00
2023-05-22T19:57:21.258Z,17.90
2023-05-22T19:59:49.258Z,17.80
2023-05-22T20:02:17.283Z,17.80
2023-05-22T20:04:49.520Z,17.80
2023-05-22T20:07:17.569Z,17.70
2023-05-22T20:09:45.568Z,17.70
2023-05-22T20:12:14.688Z,17.70
2023-05-22T20:14:42.988Z,17.70
2023-05-22T20:17:11.618Z,17.70
2023-05-22T20:19:40.240Z,17.60
2023-05-22T20:22:11.045Z,17.60
2023-05-22T20:24:39.624Z,17.60
2023-05-22T20:27:07.776Z,17.40
2023-05-22T20:29:35.775Z,17.50
2023-05-22T20:32:03.941Z,17.50
2023-05-22T20:34:34.477Z,17.40
2023-05-22T20:37:04.081Z,17.40
2023-05-22T20:39:33.678Z,17.30
2023-05-22T20:42:02.910Z,17.30
2023-05-22T20:44:31.697Z,17.30
2023-05-22T20:47:00.821Z,17.20
2023-05-22T20:49:29.866Z,17.30
2023-05-22T20:51:59.923Z,17.20
2023-05-22T20:54:28.788Z,17.20
2023-05-22T20:56:58.150Z,17.20
2023-05-22T20:59:26.177Z,17.10
2023-05-22T21:01:54.150Z,17.10
2023-05-22T21:04:22.275Z,17.10
2023-05-22T21:06:52.687Z,17.00
2023-05-22T21:09:20.683Z,17.00
2023-05-22T21:11:48.781Z,17.00
2023-05-22T21:14:18.210Z,16.90
2023-05-22T21:16:46.262Z,16.90
2023-05-22T21:19:14.285Z,16.90
2023-05-22T21:21:42.348Z,16.90
2023-05-22T21:24:10.647Z,16.80
2023-05-22T21:26:40.927Z,16.80
2023-05-22T21:29:08.973Z,16.70
2023-05-22T21:31:40.704Z,16.70
2023-05-22T21:34:11.793Z,16.60
2023-05-22T21:36:40.049Z,16.60
2023-05-22T21:39:08.166Z,16.60
2023-05-22T21:41:36.432Z,16.60
2023-05-22T21:44:04.427Z,16.60
2023-05-22T21:46:32.490Z,16.60
2023-05-22T21:49:03.329Z,16.50
2023-05-22T21:51:32.012Z,16.50
2023-05-22T21:54:00.116Z,16.50
2023-05-22T21:56:28.110Z,16.40
2023-05-22T21:58:56.107Z,16.40
2023-05-22T22:01:24.661Z,16.30
2023-05-22T22:03:52.703Z,16.20
2023-05-22T22:06:22.169Z,16.20
2023-05-22T22:08:50.136Z,16.20
2023-05-22T22:11:18.223Z,16.20
2023-05-22T22:13:46.253Z,16.10
2023-05-22T22:16:14.694Z,16.10
2023-05-22T22:18:43.834Z,16.10
2023-05-22T22:21:12.042Z,16.00
2023-05-22T22:23:41.386Z,16.00
2023-05-22T22:26:09.376Z,15.90
2023-05-22T22:28:37.387Z,15.80
2023-05-22T22:31:05.450Z,15.80
2023-05-22T22:33:33.502Z,15.80
2023-05-22T22:36:01.842Z,15.80
2023-05-22T22:38:32.750Z,15.70
2023-05-22T22:41:08.498Z,15.70
2023-05-22T22:43:36.977Z,15.60
2023-05-22T22:46:04.975Z,15.70
2023-05-22T22:48:33.703Z,15.60
2023-05-22T22:51:02.309Z,15.60
2023-05-22T22:53:30.319Z,15.60
2023-05-22T22:55:59.181Z,15.50
2023-05-22T22:58:28.572Z,15.50
2023-05-22T23:00:56.590Z,15.50
2023-05-22T23:03:24.653Z,15.50
2023-05-22T23:05:52.642Z,15.40
2023-05-22T23:08:22.078Z,15.40
2023-05-22T23:10:50.109Z,15.40
2023-05-22T23:13:18.165Z,15.40
2023-05-22T23:15:48.036Z,15.30
2023-05-22T23:18:16.273Z,15.30
2023-05-22T23:20:44.359Z,15.30
2023-05-22T23:23:12.353Z,15.20
2023-05-22T23:25:40.658Z,15.20
2023-05-22T23:28:08.863Z,15.20
2023-05-22T23:30:37.158Z,15.10
2023-05-22T23:33:07.660Z,15.10
2023-05-22T23:35:36.003Z,15.10
2023-05-22T23:38:03.992Z,15.10
2023-05-22T23:40:31.984Z,15.10
2023-05-22T23:43:00.389Z,15.00
2023-05-22T23:45:28.562Z,15.00
2023-05-22T23:47:56.578Z,15.00
2023-05-22T23:50:25.962Z,14.90
2023-05-22T23:52:54.138Z,14.90
2023-05-22T23:55:22.216Z,14.90
2023-05-22T23:57:50.221Z,14.90
